Archival Weather

Heathrow

London, United Kingdom (EGLL)

Report from: Thursday, September 21, 2023 3:20 PM BST
Current time: Friday, July 19, 2024 3:55 AM BST

Current weather – Weather history – Daily summaries
Weather forecast

Temperature17.0°C (62.6°F)
Dew point11.0°C (51.8°F)
Winds 6 kts (3.1 m/s, 6.9 mph) Vrb
Winds variableWinds variable from Southeast (140°) to Southwest (230°)
Visibility6.2 mi. (10 km)
Altimeter29.38 in.Hg (995 mB)
Relative humidity68 %
Density altitude1,042 ft. (317 m)
Remarks Fully automated report
Flight conditions Visual Meteorological Conditions
Raw dataEGLL 211420Z AUTO 19006KT 140V230 9999 //////TCU 17/11 Q0995 TEMPO 4000 +SHRA
An error has occurred. This application may no longer respond until reloaded. Reload 🗙